createdAt,value
2019-01-30T00:00:18.482Z,10.63
2019-01-30T00:03:02.690Z,12.33
2019-01-30T00:05:36.644Z,11.27
2019-01-30T00:08:19.257Z,8.83
2019-01-30T00:10:48.685Z,10.03
2019-01-30T00:13:18.106Z,11.60
2019-01-30T00:15:56.125Z,11.33
2019-01-30T00:18:18.733Z,9.30
2019-01-30T00:21:07.528Z,9.77
2019-01-30T00:23:54.994Z,8.87
2019-01-30T00:26:24.478Z,8.17
2019-01-30T00:29:13.343Z,10.77
2019-01-30T00:32:11.567Z,12.50
2019-01-30T00:35:03.011Z,10.87
2019-01-30T00:37:35.089Z,11.93
2019-01-30T00:40:08.190Z,13.50
2019-01-30T00:42:50.817Z,11.67
2019-01-30T00:45:22.095Z,10.97
2019-01-30T00:47:51.518Z,9.93
2019-01-30T00:50:43.089Z,12.00
2019-01-30T00:53:28.611Z,12.70
2019-01-30T00:55:58.076Z,12.27
2019-01-30T00:58:40.555Z,9.47
2019-01-30T01:01:09.932Z,12.97
2019-01-30T01:03:39.392Z,9.10
2019-01-30T01:06:08.860Z,12.13
2019-01-30T01:08:38.356Z,8.77
2019-01-30T01:11:07.755Z,9.90
2019-01-30T01:13:37.206Z,10.43
2019-01-30T01:16:06.725Z,9.00
2019-01-30T01:18:36.170Z,11.13
2019-01-30T01:21:05.600Z,9.53
2019-01-30T01:23:35.019Z,10.43
2019-01-30T01:26:20.336Z,8.87
2019-01-30T01:28:49.763Z,8.57
2019-01-30T01:31:20.454Z,12.03
2019-01-30T01:34:05.074Z,9.87
2019-01-30T01:36:52.724Z,9.90
2019-01-30T01:39:24.908Z,10.93
2019-01-30T01:41:54.335Z,10.20
2019-01-30T01:44:28.997Z,9.57
2019-01-30T01:46:58.495Z,9.63
2019-01-30T01:49:27.952Z,13.43
2019-01-30T01:51:57.365Z,8.73
2019-01-30T01:54:26.830Z,10.10
2019-01-30T01:56:58.685Z,9.50
2019-01-30T01:59:28.215Z,10.40
2019-01-30T02:01:57.651Z,11.87
2019-01-30T02:04:30.331Z,8.83
2019-01-30T02:07:09.387Z,7.83
2019-01-30T02:09:46.517Z,9.97
2019-01-30T02:12:47.295Z,9.87
2019-01-30T02:15:18.883Z,10.07
2019-01-30T02:18:08.567Z,6.37
2019-01-30T02:20:38.142Z,9.17
2019-01-30T02:23:18.624Z,8.30
2019-01-30T02:25:48.047Z,9.43
2019-01-30T02:28:17.517Z,7.77
2019-01-30T02:30:47.810Z,9.70
2019-01-30T02:33:18.516Z,8.80
2019-01-30T02:35:47.960Z,8.47
2019-01-30T02:38:17.373Z,9.57
2019-01-30T02:40:46.807Z,8.50
2019-01-30T02:43:16.215Z,9.60
2019-01-30T02:45:45.612Z,9.60
2019-01-30T02:48:15.600Z,9.97
2019-01-30T02:50:57.191Z,8.97
2019-01-30T02:53:32.531Z,6.87
2019-01-30T02:56:04.597Z,8.87
2019-01-30T02:58:34.035Z,10.83
2019-01-30T03:01:07.962Z,8.90
2019-01-30T03:03:42.590Z,8.30
2019-01-30T03:06:19.766Z,11.40
2019-01-30T03:08:49.526Z,10.07
2019-01-30T03:11:20.580Z,8.20
2019-01-30T03:13:52.554Z,9.53
2019-01-30T03:16:24.512Z,9.40
2019-01-30T03:19:01.575Z,8.50
2019-01-30T03:21:30.991Z,8.17
2019-01-30T03:24:00.404Z,9.57
2019-01-30T03:26:35.586Z,12.80
2019-01-30T03:29:05.025Z,8.00
2019-01-30T03:31:34.463Z,8.60
2019-01-30T03:34:04.193Z,9.80
2019-01-30T03:36:36.414Z,9.60
2019-01-30T03:39:07.358Z,10.87
2019-01-30T03:41:36.868Z,9.60
2019-01-30T03:44:06.404Z,8.03
2019-01-30T03:46:54.103Z,11.83
2019-01-30T03:49:26.240Z,11.90
2019-01-30T03:52:09.057Z,11.13
2019-01-30T03:54:38.459Z,9.47
2019-01-30T03:57:07.866Z,8.43
2019-01-30T03:59:37.365Z,8.70
2019-01-30T04:02:08.803Z,9.17
2019-01-30T04:04:38.401Z,8.60
2019-01-30T04:07:07.873Z,8.60
2019-01-30T04:09:37.291Z,10.20
2019-01-30T04:12:06.846Z,10.23
2019-01-30T04:14:36.263Z,8.43
2019-01-30T04:17:05.658Z,8.70
2019-01-30T04:19:35.089Z,10.43
2019-01-30T04:22:04.509Z,9.33
2019-01-30T04:24:33.954Z,7.53
2019-01-30T04:27:09.916Z,9.37
2019-01-30T04:29:42.254Z,7.83
2019-01-30T04:32:13.329Z,7.03
2019-01-30T04:35:04.719Z,9.07
2019-01-30T04:37:34.228Z,8.57
2019-01-30T04:40:09.837Z,8.83
2019-01-30T04:42:53.279Z,8.10
2019-01-30T04:45:24.772Z,8.20
2019-01-30T04:47:54.213Z,7.77
2019-01-30T04:50:26.340Z,7.17
2019-01-30T04:52:55.794Z,9.23
2019-01-30T04:55:25.227Z,11.13
2019-01-30T04:57:54.679Z,8.87
2019-01-30T05:00:25.019Z,8.10
2019-01-30T05:02:54.489Z,9.03
2019-01-30T05:05:26.700Z,7.13
2019-01-30T05:08:08.793Z,9.10
2019-01-30T05:10:58.307Z,7.33
2019-01-30T05:13:28.235Z,8.07
2019-01-30T05:15:57.656Z,7.53
2019-01-30T05:18:27.094Z,7.73
2019-01-30T05:20:56.512Z,9.33
2019-01-30T05:23:26.003Z,8.23
2019-01-30T05:25:55.411Z,7.57
2019-01-30T05:28:25.189Z,8.87
2019-01-30T05:30:54.628Z,8.73
2019-01-30T05:33:36.637Z,8.07
2019-01-30T05:36:25.485Z,7.70
2019-01-30T05:38:59.700Z,11.37
2019-01-30T05:41:29.248Z,9.40
2019-01-30T05:43:58.709Z,8.13
2019-01-30T05:46:43.015Z,9.47
2019-01-30T05:49:12.776Z,6.93
2019-01-30T05:51:46.652Z,9.23
2019-01-30T05:54:29.139Z,8.90
2019-01-30T05:57:17.905Z,8.20
2019-01-30T05:59:47.359Z,8.07
2019-01-30T06:02:36.163Z,8.57
2019-01-30T06:05:06.143Z,10.63
2019-01-30T06:07:35.550Z,9.03
2019-01-30T06:10:07.933Z,7.90
2019-01-30T06:12:37.848Z,7.50
2019-01-30T06:15:10.615Z,8.20
2019-01-30T06:17:46.052Z,7.70
2019-01-30T06:20:18.646Z,7.97
2019-01-30T06:22:52.225Z,9.27
2019-01-30T06:25:36.739Z,9.13
2019-01-30T06:28:06.164Z,8.87
2019-01-30T06:30:35.587Z,9.73
2019-01-30T06:33:05.025Z,8.53
2019-01-30T06:35:34.432Z,9.70
2019-01-30T06:38:05.004Z,8.10
2019-01-30T06:40:34.398Z,9.37
2019-01-30T06:43:06.604Z,9.13
2019-01-30T06:45:36.169Z,8.33
2019-01-30T06:48:06.087Z,10.20
2019-01-30T06:50:35.536Z,8.27
2019-01-30T06:53:06.595Z,10.00
2019-01-30T06:55:55.407Z,9.90
2019-01-30T06:58:24.842Z,10.47
2019-01-30T07:00:54.505Z,9.10
2019-01-30T07:03:23.986Z,10.63
2019-01-30T07:06:15.461Z,10.13
2019-01-30T07:08:44.903Z,10.23
2019-01-30T07:11:17.037Z,11.17
2019-01-30T07:13:46.539Z,11.23
2019-01-30T07:16:18.026Z,10.63
2019-01-30T07:18:47.596Z,10.33
2019-01-30T07:21:17.081Z,11.30
2019-01-30T07:23:52.343Z,9.30
2019-01-30T07:26:24.819Z,10.70
2019-01-30T07:28:54.263Z,7.67
2019-01-30T07:31:26.964Z,10.23
2019-01-30T07:33:56.714Z,8.87
2019-01-30T07:36:26.121Z,8.83
2019-01-30T07:38:56.870Z,10.50
2019-01-30T07:41:26.303Z,8.53
2019-01-30T07:43:56.986Z,9.83
2019-01-30T07:46:26.514Z,10.17
2019-01-30T07:48:56.004Z,9.93
2019-01-30T07:51:25.568Z,9.10
2019-01-30T07:53:55.115Z,8.63
2019-01-30T07:56:24.520Z,9.73
2019-01-30T07:58:55.927Z,8.83
2019-01-30T08:01:37.976Z,11.93
2019-01-30T08:04:07.390Z,9.67
2019-01-30T08:06:36.807Z,12.20
2019-01-30T08:09:08.292Z,16.23
2019-01-30T08:11:50.652Z,12.70
2019-01-30T08:14:35.274Z,13.00
2019-01-30T08:17:04.897Z,14.67
2019-01-30T08:19:34.376Z,16.90
2019-01-30T08:22:06.681Z,15.30
2019-01-30T08:24:36.484Z,15.93
2019-01-30T08:27:09.783Z,16.23
2019-01-30T08:29:43.944Z,18.93
2019-01-30T08:32:13.454Z,18.20
2019-01-30T08:35:01.179Z,21.27
2019-01-30T08:37:30.611Z,21.03
2019-01-30T08:40:00.234Z,24.53
2019-01-30T08:42:29.698Z,19.80
2019-01-30T08:44:59.085Z,22.93
2019-01-30T08:47:28.634Z,22.60
2019-01-30T08:49:58.049Z,22.67
2019-01-30T08:52:27.455Z,23.40
2019-01-30T08:54:56.892Z,24.30
2019-01-30T08:57:44.918Z,23.43
2019-01-30T09:00:20.631Z,23.17
2019-01-30T09:02:50.094Z,24.70
2019-01-30T09:05:22.566Z,24.70
2019-01-30T09:07:54.812Z,26.27
2019-01-30T09:10:28.527Z,26.33
2019-01-30T09:12:57.212Z,25.63
2019-01-30T09:15:30.464Z,27.33
2019-01-30T09:17:59.935Z,25.83
2019-01-30T09:20:29.433Z,28.33
2019-01-30T09:22:58.903Z,27.17
2019-01-30T09:25:30.226Z,24.53
2019-01-30T09:28:19.119Z,26.40
2019-01-30T09:30:48.795Z,26.23
2019-01-30T09:33:25.591Z,26.63
2019-01-30T09:35:57.365Z,26.47
2019-01-30T09:38:31.799Z,28.13
2019-01-30T09:41:01.434Z,26.30
2019-01-30T09:43:30.918Z,32.37
2019-01-30T09:46:00.355Z,27.10
2019-01-30T09:48:29.814Z,25.50
2019-01-30T09:50:59.227Z,24.80
2019-01-30T09:53:28.646Z,26.93
2019-01-30T09:55:58.179Z,23.20
2019-01-30T09:58:27.768Z,27.67
2019-01-30T10:00:57.195Z,28.93
2019-01-30T10:03:35.711Z,33.80
2019-01-30T10:05:58.003Z,31.50
2019-01-30T10:08:27.619Z,34.60
2019-01-30T10:11:15.753Z,33.00
2019-01-30T10:16:36.876Z,29.97
2019-01-30T10:19:06.335Z,33.37
2019-01-30T10:21:35.834Z,28.37
2019-01-30T10:24:05.401Z,32.43
2019-01-30T10:26:34.871Z,32.80
2019-01-30T10:29:04.313Z,31.30
2019-01-30T10:31:36.377Z,31.77
2019-01-30T10:34:05.984Z,31.37
2019-01-30T10:36:35.435Z,31.43
2019-01-30T10:39:25.890Z,32.47
2019-01-30T10:41:55.614Z,36.93
2019-01-30T10:44:25.066Z,31.60
2019-01-30T10:46:54.486Z,30.10
2019-01-30T10:49:30.174Z,33.30
2019-01-30T10:52:01.234Z,32.83
2019-01-30T10:54:34.081Z,29.77
2019-01-30T10:57:06.171Z,34.97
2019-01-30T10:59:35.570Z,34.20
2019-01-30T11:02:05.082Z,35.70
2019-01-30T11:04:34.576Z,31.57
2019-01-30T11:07:10.055Z,31.33
2019-01-30T11:09:39.644Z,28.30
2019-01-30T11:12:08.940Z,29.70
2019-01-30T11:14:46.161Z,31.57
2019-01-30T11:17:30.822Z,32.00
2019-01-30T11:20:00.324Z,29.80
2019-01-30T11:22:33.237Z,31.27
2019-01-30T11:25:12.302Z,31.80
2019-01-30T11:27:43.658Z,33.30
2019-01-30T11:30:24.077Z,32.27
2019-01-30T11:32:55.393Z,35.63
2019-01-30T11:35:27.098Z,32.27
2019-01-30T11:37:56.552Z,29.93
2019-01-30T11:40:26.024Z,36.17
2019-01-30T11:42:57.555Z,31.33
2019-01-30T11:45:30.197Z,33.27
2019-01-30T11:47:59.879Z,37.10
2019-01-30T11:50:42.994Z,35.03
2019-01-30T11:53:15.432Z,35.03
2019-01-30T11:55:46.000Z,33.37
2019-01-30T11:58:17.018Z,32.40
2019-01-30T12:00:48.130Z,33.80
2019-01-30T12:03:17.674Z,39.70
2019-01-30T12:05:47.154Z,34.70
2019-01-30T12:08:19.681Z,34.23
2019-01-30T12:11:02.920Z,36.13
2019-01-30T12:13:35.147Z,40.83
2019-01-30T12:16:08.104Z,35.93
2019-01-30T12:18:37.635Z,34.80
2019-01-30T12:21:07.107Z,38.27
2019-01-30T12:23:36.583Z,37.90
2019-01-30T12:26:08.773Z,40.33
2019-01-30T12:28:38.347Z,38.97
2019-01-30T12:31:07.766Z,41.90
2019-01-30T12:33:37.295Z,39.87
2019-01-30T12:36:18.764Z,40.17
2019-01-30T12:38:48.391Z,45.93
2019-01-30T12:41:17.823Z,45.43
2019-01-30T12:43:48.113Z,48.87
2019-01-30T12:46:17.786Z,47.80
2019-01-30T12:48:48.870Z,50.13
2019-01-30T12:51:18.715Z,48.80
2019-01-30T12:53:48.235Z,47.57
2019-01-30T12:56:19.321Z,46.23
2019-01-30T12:58:48.786Z,47.63
2019-01-30T13:01:18.238Z,48.87
2019-01-30T13:03:47.737Z,50.20
2019-01-30T13:06:17.825Z,46.40
2019-01-30T13:08:52.174Z,50.20
2019-01-30T13:11:21.690Z,52.30
2019-01-30T13:14:00.215Z,45.23
2019-01-30T13:16:29.606Z,54.00
2019-01-30T13:19:06.645Z,51.30
2019-01-30T13:21:36.091Z,52.03
2019-01-30T13:24:07.136Z,54.37
2019-01-30T13:26:36.607Z,55.53
2019-01-30T13:29:06.249Z,56.60
2019-01-30T13:31:37.367Z,51.13
2019-01-30T13:34:06.836Z,54.30
2019-01-30T13:36:36.249Z,59.93
2019-01-30T13:39:16.262Z,49.33
2019-01-30T13:41:52.720Z,50.57
2019-01-30T13:44:24.442Z,49.77
2019-01-30T13:47:05.684Z,55.93
2019-01-30T13:49:35.102Z,59.73
2019-01-30T13:52:04.623Z,53.80
2019-01-30T13:54:36.131Z,50.87
2019-01-30T13:57:05.740Z,60.03
2019-01-30T13:59:35.168Z,72.17
2019-01-30T14:02:04.706Z,73.97
2019-01-30T14:04:36.797Z,70.90
2019-01-30T14:07:06.221Z,64.77
2019-01-30T14:09:35.652Z,63.00
2019-01-30T14:12:06.341Z,67.60
2019-01-30T14:14:43.440Z,63.93
2019-01-30T14:17:17.424Z,62.27
2019-01-30T14:19:46.862Z,60.90
2019-01-30T14:22:16.434Z,66.13
2019-01-30T14:24:45.992Z,57.50
2019-01-30T14:27:15.707Z,66.33
2019-01-30T14:29:45.113Z,64.63
2019-01-30T14:32:15.005Z,69.77
2019-01-30T14:34:46.228Z,66.60
2019-01-30T14:37:15.679Z,78.70
2019-01-30T14:39:45.309Z,88.17
2019-01-30T14:42:15.255Z,89.60
2019-01-30T14:44:45.051Z,95.83
2019-01-30T14:47:14.731Z,84.27
2019-01-30T14:49:44.266Z,80.50
2019-01-30T14:52:18.986Z,87.27
2019-01-30T14:54:48.597Z,83.83
2019-01-30T14:57:27.010Z,85.90
2019-01-30T14:59:59.182Z,84.60
2019-01-30T15:02:28.707Z,97.00
2019-01-30T15:04:58.097Z,89.60
2019-01-30T15:07:29.012Z,98.87
2019-01-30T15:09:58.852Z,88.13
2019-01-30T15:12:28.512Z,91.10
2019-01-30T15:14:58.034Z,89.70
2019-01-30T15:17:27.556Z,88.67
2019-01-30T15:19:57.063Z,102.20
2019-01-30T15:22:26.590Z,98.33
2019-01-30T15:24:56.181Z,94.10
2019-01-30T15:27:25.561Z,106.33
2019-01-30T15:29:55.009Z,99.73
2019-01-30T15:32:24.549Z,95.70
2019-01-30T15:34:54.231Z,111.00
2019-01-30T15:37:31.776Z,118.10
2019-01-30T15:40:01.225Z,96.13
2019-01-30T15:42:30.981Z,93.93
2019-01-30T15:45:00.579Z,111.83
2019-01-30T15:47:30.005Z,107.10
2019-01-30T15:50:01.870Z,113.40
2019-01-30T15:52:31.514Z,107.63
2019-01-30T15:55:00.972Z,112.50
2019-01-30T15:57:30.394Z,104.47
2019-01-30T15:59:59.802Z,113.27
2019-01-30T16:02:32.249Z,93.43
2019-01-30T16:05:03.868Z,97.13
2019-01-30T16:07:36.814Z,96.43
2019-01-30T16:10:09.704Z,90.50
2019-01-30T16:12:46.390Z,94.60
2019-01-30T16:15:19.030Z,82.83
2019-01-30T16:17:48.521Z,85.77
2019-01-30T16:20:18.007Z,102.23
2019-01-30T16:22:47.434Z,101.13
2019-01-30T16:25:20.062Z,91.23
2019-01-30T16:27:49.591Z,105.07
2019-01-30T16:30:21.681Z,109.57
2019-01-30T16:32:51.148Z,107.37
2019-01-30T16:35:23.506Z,111.13
2019-01-30T16:37:55.645Z,120.30
2019-01-30T16:40:25.083Z,123.40
2019-01-30T16:42:55.262Z,119.30
2019-01-30T16:45:27.118Z,124.90
2019-01-30T16:47:56.543Z,121.77
2019-01-30T16:50:25.976Z,126.33
2019-01-30T16:53:13.454Z,116.43
2019-01-30T16:56:00.841Z,129.27
2019-01-30T16:58:30.330Z,130.80
2019-01-30T17:01:07.209Z,125.93
2019-01-30T17:03:36.727Z,128.67
2019-01-30T17:06:07.615Z,133.03
2019-01-30T17:08:37.308Z,133.83
2019-01-30T17:11:06.843Z,135.67
2019-01-30T17:13:36.334Z,135.67
2019-01-30T17:16:10.570Z,141.07
2019-01-30T17:18:40.007Z,141.27
2019-01-30T17:21:15.047Z,136.20
2019-01-30T17:24:02.581Z,141.63
2019-01-30T17:26:34.428Z,145.20
2019-01-30T17:29:11.510Z,141.23
2019-01-30T17:31:40.918Z,147.53
2019-01-30T17:34:10.376Z,134.30
2019-01-30T17:36:39.936Z,137.43
2019-01-30T17:39:17.174Z,138.67
2019-01-30T17:41:46.632Z,133.60
2019-01-30T17:44:16.098Z,144.63
2019-01-30T17:46:46.699Z,132.07
2019-01-30T17:49:19.018Z,142.40
2019-01-30T17:51:47.310Z,147.10
2019-01-30T17:54:18.325Z,144.93
2019-01-30T17:56:52.321Z,149.57
2019-01-30T17:59:23.451Z,144.47
2019-01-30T18:01:55.618Z,137.67
2019-01-30T18:04:25.048Z,143.33
2019-01-30T18:07:12.375Z,140.30
2019-01-30T18:09:41.813Z,137.83
2019-01-30T18:12:13.911Z,128.67
2019-01-30T18:14:46.293Z,138.20
2019-01-30T18:17:15.760Z,125.43
2019-01-30T18:19:45.207Z,136.50
2019-01-30T18:22:14.698Z,137.93
2019-01-30T18:24:44.150Z,139.70
2019-01-30T18:27:16.451Z,138.87
2019-01-30T18:29:45.889Z,130.53
2019-01-30T18:32:15.309Z,130.73
2019-01-30T18:34:44.881Z,130.97
2019-01-30T18:37:14.429Z,126.33
2019-01-30T18:39:43.853Z,132.70
2019-01-30T18:42:16.263Z,127.50
2019-01-30T18:44:45.672Z,133.47
2019-01-30T18:47:19.165Z,125.20
2019-01-30T18:49:56.456Z,129.57
2019-01-30T18:52:25.907Z,122.13
2019-01-30T18:54:55.466Z,116.07
2019-01-30T18:57:24.923Z,115.50
2019-01-30T18:59:54.380Z,115.50
2019-01-30T19:02:26.625Z,121.10
2019-01-30T19:04:56.057Z,108.20
2019-01-30T19:07:25.597Z,102.20
2019-01-30T19:09:55.013Z,102.13
2019-01-30T19:12:24.473Z,102.43
2019-01-30T19:14:53.980Z,101.73
2019-01-30T19:17:41.709Z,101.30
2019-01-30T19:20:14.188Z,103.07
2019-01-30T19:22:48.145Z,110.13
2019-01-30T19:25:17.566Z,96.23
2019-01-30T19:27:47.078Z,100.73
2019-01-30T19:30:19.380Z,109.10
2019-01-30T19:32:48.902Z,102.37
2019-01-30T19:35:18.336Z,108.10
2019-01-30T19:37:47.796Z,113.70
2019-01-30T19:40:17.303Z,110.07
2019-01-30T19:42:46.705Z,108.10
2019-01-30T19:45:18.707Z,116.03
2019-01-30T19:47:49.416Z,118.70
2019-01-30T19:50:22.256Z,112.87
2019-01-30T19:52:53.640Z,108.70
2019-01-30T19:55:25.644Z,112.00
2019-01-30T19:57:55.882Z,108.87
2019-01-30T20:00:28.522Z,113.93
2019-01-30T20:02:58.249Z,104.43
2019-01-30T20:05:32.248Z,115.10
2019-01-30T20:08:03.407Z,113.83
2019-01-30T20:10:36.268Z,117.60
2019-01-30T20:13:05.843Z,117.20
2019-01-30T20:15:48.053Z,115.30
2019-01-30T20:18:17.529Z,108.23
2019-01-30T20:20:46.960Z,102.90
2019-01-30T20:23:16.486Z,120.10
2019-01-30T20:25:45.953Z,112.70
2019-01-30T20:28:16.447Z,113.37
2019-01-30T20:30:45.870Z,115.87
2019-01-30T20:33:15.300Z,109.83
2019-01-30T20:35:44.802Z,97.87
2019-01-30T20:38:14.210Z,90.17
2019-01-30T20:40:50.344Z,92.83
2019-01-30T20:43:19.788Z,89.43
2019-01-30T20:45:56.460Z,83.97
2019-01-30T20:48:27.669Z,91.03
2019-01-30T20:50:57.134Z,99.23
2019-01-30T20:53:26.543Z,93.87
2019-01-30T20:55:55.983Z,91.10
2019-01-30T20:58:25.492Z,88.20
2019-01-30T21:01:02.504Z,79.73
2019-01-30T21:03:39.678Z,76.90
2019-01-30T21:06:13.607Z,80.03
2019-01-30T21:08:45.845Z,70.47
2019-01-30T21:11:15.370Z,67.50
2019-01-30T21:13:44.813Z,70.17
2019-01-30T21:16:32.572Z,68.90
2019-01-30T21:19:06.499Z,71.93
2019-01-30T21:21:36.028Z,72.13
2019-01-30T21:24:05.572Z,73.17
2019-01-30T21:26:34.999Z,68.43
2019-01-30T21:29:04.402Z,67.77
2019-01-30T21:31:33.841Z,72.33
2019-01-30T21:34:06.021Z,76.17
2019-01-30T21:36:35.447Z,77.10
2019-01-30T21:39:07.238Z,83.43
2019-01-30T21:41:36.694Z,82.47
2019-01-30T21:44:06.142Z,87.47
2019-01-30T21:46:35.591Z,89.77
2019-01-30T21:49:05.190Z,92.37
2019-01-30T21:51:37.628Z,98.47
2019-01-30T21:54:07.125Z,86.90
2019-01-30T21:56:36.534Z,97.43
2019-01-30T21:59:06.052Z,93.80
2019-01-30T22:01:35.516Z,95.03
2019-01-30T22:04:04.960Z,96.23
2019-01-30T22:06:53.747Z,91.40
2019-01-30T22:09:27.717Z,84.70
2019-01-30T22:11:57.167Z,88.10
2019-01-30T22:14:26.689Z,86.27
2019-01-30T22:17:02.010Z,91.80
2019-01-30T22:19:31.477Z,80.20
2019-01-30T22:22:00.927Z,76.90
2019-01-30T22:24:30.429Z,77.03
2019-01-30T22:26:59.899Z,81.57
2019-01-30T22:29:29.403Z,84.67
2019-01-30T22:31:58.882Z,86.73
2019-01-30T22:34:28.343Z,77.13
2019-01-30T22:36:57.868Z,79.27
2019-01-30T22:39:28.355Z,71.47
2019-01-30T22:41:57.974Z,83.83
2019-01-30T22:44:27.403Z,77.20
2019-01-30T22:47:03.682Z,76.30
2019-01-30T22:49:35.979Z,69.90
2019-01-30T22:52:05.506Z,72.23
2019-01-30T22:54:54.285Z,69.87
2019-01-30T22:57:31.474Z,72.77
2019-01-30T23:00:00.872Z,69.87
2019-01-30T23:02:33.285Z,79.40
2019-01-30T23:05:08.498Z,67.73
2019-01-30T23:07:41.357Z,70.50
2019-01-30T23:10:14.009Z,74.27
2019-01-30T23:15:53.514Z,63.37
2019-01-30T23:18:33.675Z,55.77
2019-01-30T23:21:17.562Z,62.60
2019-01-30T23:23:50.129Z,61.63
2019-01-30T23:26:22.769Z,53.13
2019-01-30T23:28:58.262Z,55.63
2019-01-30T23:31:30.861Z,45.10
2019-01-30T23:34:03.473Z,46.30
2019-01-30T23:36:42.307Z,48.60
2019-01-30T23:39:17.949Z,47.80
2019-01-30T23:41:50.532Z,45.43
2019-01-30T23:44:40.936Z,45.93
2019-01-30T23:47:13.527Z,49.50
2019-01-30T23:49:53.830Z,50.77
2019-01-30T23:52:31.047Z,48.37
2019-01-30T23:55:03.633Z,45.53
2019-01-30T23:57:39.277Z,38.53
